Time;durP1;ratioP1;P1;durP2;ratioP2;P2;SDS_P1;SDS_P2;PMS_P1;PMS_P2;Temp;Humidity;BMP_temperature;BMP_pressure;BME280_temperature;BME280_humidity;BME280_pressure;Samples;Min_cycle;Max_cycle;Signal;HPM_P1;HPM_P2
2021/11/13 00:00:34;;;;;;;;;;;14.00;88.80;;;;;;2076869;28;1371;-60
2021/11/13 00:01:54;;;;;;;;;;;14.00;89.00;;;;;;2071733;28;1488;-60
2021/11/13 00:03:13;;;;;;;;;;;14.00;89.10;;;;;;2077457;28;1574;-58
2021/11/13 00:04:32;;;;;;;;;;;14.00;89.00;;;;;;2080860;28;1252;-62
2021/11/13 00:05:52;;;;;;;;;;;14.00;89.10;;;;;;2064790;28;1300;-57
2021/11/13 00:07:11;;;;;;;;;;;14.00;89.80;;;;;;2074167;28;1407;-55
2021/11/13 00:08:30;;;;;;;;;;;14.00;89.80;;;;;;2066250;28;1204;-61
2021/11/13 00:09:53;;;;;;;;;;;14.00;89.20;;;;;;2074182;28;1343;-62
2021/11/13 00:11:13;;;;;;;;;;;14.00;89.20;;;;;;2075863;28;1629;-59
2021/11/13 00:12:32;;;;;;;;;;;14.00;89.30;;;;;;2078888;28;1541;-63
2021/11/13 00:13:54;;;;;;;;;;;14.00;89.30;;;;;;2078625;28;1412;-58
2021/11/13 00:15:18;;;;;;;;;;;14.00;89.40;;;;;;2081674;28;1343;-59
2021/11/13 00:16:38;;;;;;;;;;;14.00;89.40;;;;;;2081581;28;1461;-62
2021/11/13 00:17:58;;;;;;;;;;;14.00;89.40;;;;;;2070692;28;1251;-62
2021/11/13 00:19:17;;;;;;;;;;;13.90;89.30;;;;;;2067316;28;1325;-63
2021/11/13 00:20:37;;;;;;;;;;;13.90;89.40;;;;;;2070330;28;1233;-62
2021/11/13 00:21:56;;;;;;;;;;;13.90;89.50;;;;;;2078452;28;1448;-58
2021/11/13 00:23:22;;;;;;;;;;;13.90;89.30;;;;;;2071977;28;1239;-61
2021/11/13 00:24:41;;;;;;;;;;;14.00;89.50;;;;;;2077574;28;1295;-62
2021/11/13 00:26:00;;;;;;;;;;;13.90;89.40;;;;;;2072245;28;1337;-60
2021/11/13 00:27:20;;;;;;;;;;;13.90;89.30;;;;;;2076835;28;1311;-58
2021/11/13 00:28:39;;;;;;;;;;;13.90;89.50;;;;;;2074155;28;1309;-62
2021/11/13 00:29:58;;;;;;;;;;;13.90;89.50;;;;;;2074088;28;1269;-61
2021/11/13 00:31:19;;;;;;;;;;;13.90;89.50;;;;;;2075889;28;1332;-59
2021/11/13 00:32:38;;;;;;;;;;;13.90;89.50;;;;;;2080635;28;1449;-62
2021/11/13 00:33:58;;;;;;;;;;;13.90;89.70;;;;;;2071947;28;1297;-62
2021/11/13 00:35:17;;;;;;;;;;;13.90;89.60;;;;;;2074254;28;1343;-59
2021/11/13 00:36:36;;;;;;;;;;;13.90;89.70;;;;;;2074023;28;1231;-62
2021/11/13 00:37:55;;;;;;;;;;;13.90;90.00;;;;;;2085994;28;1418;-62
2021/11/13 00:39:14;;;;;;;;;;;13.90;89.60;;;;;;2083767;28;1436;-58
2021/11/13 00:40:35;;;;;;;;;;;13.90;89.60;;;;;;2082527;28;1443;-61
2021/11/13 00:41:55;;;;;;;;;;;13.90;89.80;;;;;;2079854;28;1686;-61
2021/11/13 00:43:14;;;;;;;;;;;13.90;89.70;;;;;;2072430;28;1325;-58
2021/11/13 00:44:34;;;;;;;;;;;13.90;90.00;;;;;;2077994;28;1341;-62
2021/11/13 00:45:53;;;;;;;;;;;13.90;89.80;;;;;;2072012;28;1385;-60
2021/11/13 00:47:12;;;;;;;;;;;13.90;90.00;;;;;;2076610;28;1441;-59
2021/11/13 00:48:32;;;;;;;;;;;13.90;89.60;;;;;;2080949;28;1140;-60
2021/11/13 00:49:51;;;;;;;;;;;13.90;89.60;;;;;;2080852;28;1427;-59
2021/11/13 00:51:10;;;;;;;;;;;13.80;89.60;;;;;;2073117;28;1379;-60
2021/11/13 00:52:29;;;;;;;;;;;13.80;90.10;;;;;;2077682;28;1448;-62
2021/11/13 00:53:48;;;;;;;;;;;13.80;90.10;;;;;;2079931;28;1426;-55
2021/11/13 00:55:08;;;;;;;;;;;13.80;90.00;;;;;;2064101;28;1273;-60
2021/11/13 00:56:28;;;;;;;;;;;13.80;90.00;;;;;;2073683;28;1500;-58
2021/11/13 00:57:47;;;;;;;;;;;13.80;89.60;;;;;;2088507;28;1286;-59
2021/11/13 00:59:06;;;;;;;;;;;13.80;89.70;;;;;;2074532;28;1455;-58
2021/11/13 01:00:26;;;;;;;;;;;13.80;89.60;;;;;;2071472;28;1434;-57
2021/11/13 01:01:45;;;;;;;;;;;13.80;89.60;;;;;;2071397;28;1577;-60
2021/11/13 01:03:05;;;;;;;;;;;13.80;89.80;;;;;;2080427;28;1906;-62
2021/11/13 01:04:24;;;;;;;;;;;13.80;90.00;;;;;;2082447;28;1160;-58
2021/11/13 01:05:43;;;;;;;;;;;13.80;89.80;;;;;;2081769;28;1034;-57
2021/11/13 01:07:02;;;;;;;;;;;13.80;89.70;;;;;;2082274;28;1122;-62
2021/11/13 01:08:21;;;;;;;;;;;13.80;89.80;;;;;;2081719;28;1234;-61
2021/11/13 01:09:41;;;;;;;;;;;13.80;90.00;;;;;;2072505;28;1200;-59
2021/11/13 01:11:00;;;;;;;;;;;13.80;90.20;;;;;;2083851;28;1106;-61
2021/11/13 01:12:19;;;;;;;;;;;13.80;90.00;;;;;;2081685;28;1469;-61
2021/11/13 01:13:39;;;;;;;;;;;13.80;89.90;;;;;;2079239;28;1582;-61
2021/11/13 01:14:58;;;;;;;;;;;13.80;89.90;;;;;;2080001;28;1003;-60
2021/11/13 01:16:17;;;;;;;;;;;13.80;90.00;;;;;;2070891;28;1116;-58
2021/11/13 01:17:37;;;;;;;;;;;13.80;90.00;;;;;;2062922;28;1383;-58
2021/11/13 01:18:56;;;;;;;;;;;13.80;90.00;;;;;;2073426;28;1247;-58
2021/11/13 01:20:16;;;;;;;;;;;13.80;90.00;;;;;;2082082;28;1761;-62
2021/11/13 01:21:35;;;;;;;;;;;13.80;90.00;;;;;;2064090;28;1518;-59
2021/11/13 01:22:54;;;;;;;;;;;13.80;89.80;;;;;;2068516;28;2030;-59
2021/11/13 01:24:14;;;;;;;;;;;13.70;90.00;;;;;;2069726;28;1108;-60
2021/11/13 01:25:33;;;;;;;;;;;13.70;90.00;;;;;;2069532;28;1360;-60
2021/11/13 01:26:52;;;;;;;;;;;13.70;90.20;;;;;;2084350;28;1113;-62
2021/11/13 01:28:12;;;;;;;;;;;13.70;90.00;;;;;;2074593;28;941;-60
2021/11/13 01:29:32;;;;;;;;;;;13.70;90.00;;;;;;2076853;28;1451;-60
2021/11/13 01:30:51;;;;;;;;;;;13.70;90.20;;;;;;2088713;28;1553;-58
2021/11/13 01:32:10;;;;;;;;;;;13.70;90.20;;;;;;2082526;28;1595;-59
2021/11/13 01:33:30;;;;;;;;;;;13.70;90.20;;;;;;2078562;28;1268;-60
2021/11/13 01:34:49;;;;;;;;;;;13.70;90.20;;;;;;2080255;28;1410;-59
2021/11/13 01:36:08;;;;;;;;;;;13.70;90.20;;;;;;2088246;28;1214;-58
2021/11/13 01:37:28;;;;;;;;;;;13.70;90.20;;;;;;2082717;28;1535;-61
2021/11/13 01:38:47;;;;;;;;;;;13.70;90.20;;;;;;2072470;28;1216;-61
2021/11/13 01:40:08;;;;;;;;;;;13.70;90.20;;;;;;2077021;28;1627;-62
2021/11/13 01:41:27;;;;;;;;;;;13.70;90.60;;;;;;2069407;28;1348;-58
2021/11/13 01:42:46;;;;;;;;;;;13.70;90.20;;;;;;2078489;28;1906;-62
2021/11/13 01:44:06;;;;;;;;;;;13.70;90.30;;;;;;2081318;28;1027;-58
2021/11/13 01:45:27;;;;;;;;;;;13.70;90.20;;;;;;2080295;28;1163;-61
2021/11/13 01:46:46;;;;;;;;;;;13.70;90.30;;;;;;2070032;28;1095;-61
2021/11/13 01:48:05;;;;;;;;;;;13.70;90.30;;;;;;2075925;28;1656;-62
2021/11/13 01:49:25;;;;;;;;;;;13.70;90.30;;;;;;2072998;28;1091;-62
2021/11/13 01:50:44;;;;;;;;;;;13.70;90.30;;;;;;2077422;28;1281;-59
2021/11/13 01:52:08;;;;;;;;;;;13.70;90.20;;;;;;2079913;28;1529;-61
2021/11/13 01:53:28;;;;;;;;;;;13.70;90.20;;;;;;2081591;28;1022;-62
2021/11/13 01:54:48;;;;;;;;;;;13.70;90.20;;;;;;2082363;28;1104;-57
2021/11/13 01:56:07;;;;;;;;;;;13.70;90.30;;;;;;2073920;28;945;-59
2021/11/13 01:57:33;;;;;;;;;;;13.70;90.20;;;;;;2078333;28;1229;-60
2021/11/13 01:58:53;;;;;;;;;;;13.70;90.40;;;;;;2081166;28;1191;-62
2021/11/13 02:00:15;;;;;;;;;;;13.70;90.30;;;;;;2077196;28;1820;-59
2021/11/13 02:01:34;;;;;;;;;;;13.70;90.20;;;;;;2096630;28;1425;-56
2021/11/13 02:02:53;;;;;;;;;;;13.70;90.10;;;;;;2091263;28;1910;-60
2021/11/13 02:04:13;;;;;;;;;;;13.70;90.20;;;;;;2092789;28;1502;-60
2021/11/13 02:05:32;;;;;;;;;;;13.70;90.30;;;;;;2076520;28;1467;-59
2021/11/13 02:06:51;;;;;;;;;;;13.70;90.20;;;;;;2084615;28;807;-60
2021/11/13 02:08:10;;;;;;;;;;;13.70;90.20;;;;;;2081142;28;736;-60
2021/11/13 02:09:30;;;;;;;;;;;13.70;90.20;;;;;;2072234;28;793;-58
2021/11/13 02:10:49;;;;;;;;;;;13.60;90.30;;;;;;2077215;28;756;-60
2021/11/13 02:12:08;;;;;;;;;;;13.70;90.30;;;;;;2072278;28;1324;-59
2021/11/13 02:13:27;;;;;;;;;;;13.60;90.30;;;;;;2084611;28;1365;-57
2021/11/13 02:14:46;;;;;;;;;;;13.60;90.70;;;;;;2088210;28;736;-59
2021/11/13 02:16:08;;;;;;;;;;;13.60;90.70;;;;;;2084977;28;753;-59
2021/11/13 02:17:27;;;;;;;;;;;13.60;90.40;;;;;;2088304;28;1026;-57
2021/11/13 02:18:46;;;;;;;;;;;13.60;90.30;;;;;;2087836;28;734;-59
2021/11/13 02:20:17;;;;;;;;;;;13.70;90.40;;;;;;2082991;28;1554;-57
2021/11/13 02:21:37;;;;;;;;;;;13.60;90.30;;;;;;2085193;28;1873;-59
2021/11/13 02:22:57;;;;;;;;;;;13.60;90.30;;;;;;2095009;28;1972;-58
2021/11/13 02:24:16;;;;;;;;;;;13.60;90.40;;;;;;2073539;28;783;-59
2021/11/13 02:25:37;;;;;;;;;;;13.60;90.40;;;;;;2087092;28;1022;-60
2021/11/13 02:26:56;;;;;;;;;;;13.60;90.50;;;;;;2088766;28;1012;-59
2021/11/13 02:28:16;;;;;;;;;;;13.60;90.40;;;;;;2096800;28;920;-60
2021/11/13 02:29:36;;;;;;;;;;;13.60;90.40;;;;;;2087343;28;756;-57
2021/11/13 02:30:55;;;;;;;;;;;13.60;90.70;;;;;;2093603;28;774;-60
2021/11/13 02:32:17;;;;;;;;;;;13.60;90.80;;;;;;2089339;28;1563;-58
2021/11/13 02:33:37;;;;;;;;;;;13.60;90.40;;;;;;2081304;28;1463;-57
2021/11/13 02:34:56;;;;;;;;;;;13.60;90.40;;;;;;2079863;28;775;-57
2021/11/13 02:36:16;;;;;;;;;;;13.60;90.50;;;;;;2071670;28;769;-60
2021/11/13 02:37:35;;;;;;;;;;;13.60;90.50;;;;;;2068550;28;770;-57
2021/11/13 02:38:56;;;;;;;;;;;13.60;90.50;;;;;;2077279;28;758;-59
2021/11/13 02:40:15;;;;;;;;;;;13.60;90.50;;;;;;2080567;28;1057;-55
2021/11/13 02:41:34;;;;;;;;;;;13.60;90.60;;;;;;2080970;28;852;-56
2021/11/13 02:42:54;;;;;;;;;;;13.60;90.80;;;;;;2093596;28;1910;-58
2021/11/13 02:44:13;;;;;;;;;;;13.60;90.90;;;;;;2087139;28;1023;-58
2021/11/13 02:45:32;;;;;;;;;;;13.50;90.50;;;;;;2091912;28;1107;-58
2021/11/13 02:46:52;;;;;;;;;;;13.60;90.60;;;;;;2089735;28;920;-58
2021/11/13 02:48:11;;;;;;;;;;;13.50;90.50;;;;;;2090162;28;790;-55
2021/11/13 02:49:34;;;;;;;;;;;13.60;90.60;;;;;;2081779;28;740;-55
2021/11/13 02:50:55;;;;;;;;;;;13.50;90.60;;;;;;2096031;28;738;-60
2021/11/13 02:52:14;;;;;;;;;;;13.50;90.60;;;;;;2084238;28;1448;-60
2021/11/13 02:53:33;;;;;;;;;;;13.50;90.60;;;;;;2086678;28;718;-58
2021/11/13 02:54:52;;;;;;;;;;;13.50;90.90;;;;;;2094766;28;774;-56
2021/11/13 02:56:12;;;;;;;;;;;13.50;90.90;;;;;;2086863;28;1018;-59
2021/11/13 02:57:31;;;;;;;;;;;13.50;90.90;;;;;;2079203;28;1077;-61
2021/11/13 02:58:51;;;;;;;;;;;13.50;90.70;;;;;;2079327;28;1002;-57
2021/11/13 03:00:11;;;;;;;;;;;13.50;90.70;;;;;;2077772;28;1124;-60
2021/11/13 03:01:30;;;;;;;;;;;13.50;90.80;;;;;;2078230;28;1058;-60
2021/11/13 03:02:49;;;;;;;;;;;13.50;90.70;;;;;;2079460;28;1955;-56
2021/11/13 03:04:08;;;;;;;;;;;13.50;90.70;;;;;;2079176;28;861;-60
2021/11/13 03:05:28;;;;;;;;;;;13.50;90.80;;;;;;2079598;28;867;-60
2021/11/13 03:06:47;;;;;;;;;;;13.50;90.80;;;;;;2077462;28;938;-61
2021/11/13 03:08:07;;;;;;;;;;;13.50;90.80;;;;;;2080423;28;1350;-61
2021/11/13 03:09:26;;;;;;;;;;;13.50;90.80;;;;;;2069594;28;1084;-60
2021/11/13 03:10:45;;;;;;;;;;;13.50;90.90;;;;;;2075517;28;1539;-59
2021/11/13 03:12:05;;;;;;;;;;;13.50;91.10;;;;;;2078777;28;1081;-57
2021/11/13 03:13:24;;;;;;;;;;;13.50;91.20;;;;;;2071056;28;1420;-59
2021/11/13 03:14:43;;;;;;;;;;;13.50;90.80;;;;;;2076250;28;943;-60
2021/11/13 03:16:03;;;;;;;;;;;13.50;90.90;;;;;;2079897;28;1255;-60
2021/11/13 03:17:22;;;;;;;;;;;13.50;90.80;;;;;;2069409;28;1118;-60
2021/11/13 03:18:41;;;;;;;;;;;13.50;90.80;;;;;;2075438;28;1281;-60
2021/11/13 03:20:03;;;;;;;;;;;13.50;90.80;;;;;;2078665;28;1525;-58
2021/11/13 03:21:22;;;;;;;;;;;13.50;90.80;;;;;;2071239;28;1230;-60
2021/11/13 03:22:41;;;;;;;;;;;13.50;90.80;;;;;;2064776;28;1906;-57
2021/11/13 03:24:00;;;;;;;;;;;13.40;90.80;;;;;;2083380;28;1246;-59
2021/11/13 03:25:20;;;;;;;;;;;13.50;90.80;;;;;;2082396;28;1191;-61
2021/11/13 03:26:41;;;;;;;;;;;13.50;90.70;;;;;;2078553;28;1203;-57
2021/11/13 03:28:01;;;;;;;;;;;13.50;90.80;;;;;;2070649;28;1720;-60
2021/11/13 03:29:21;;;;;;;;;;;13.50;90.80;;;;;;2084497;28;1148;-59
2021/11/13 03:30:40;;;;;;;;;;;13.50;90.80;;;;;;2073018;28;1379;-59
2021/11/13 03:32:00;;;;;;;;;;;13.50;90.80;;;;;;2075947;28;1257;-60
2021/11/13 03:33:19;;;;;;;;;;;13.50;90.80;;;;;;2088083;28;1237;-59
2021/11/13 03:34:38;;;;;;;;;;;13.50;90.90;;;;;;2073409;28;1362;-60
2021/11/13 03:35:58;;;;;;;;;;;13.50;90.80;;;;;;2075725;28;1300;-61
2021/11/13 03:37:17;;;;;;;;;;;13.50;90.90;;;;;;2079586;28;1089;-58
2021/11/13 03:38:36;;;;;;;;;;;13.40;90.80;;;;;;2078171;28;1474;-61
2021/11/13 03:39:56;;;;;;;;;;;13.40;90.80;;;;;;2085451;28;1288;-58
2021/11/13 03:41:16;;;;;;;;;;;13.50;90.80;;;;;;2082195;28;1490;-58
2021/11/13 03:42:35;;;;;;;;;;;13.50;90.90;;;;;;2079040;28;1906;-60
2021/11/13 03:43:55;;;;;;;;;;;13.50;90.90;;;;;;2078442;28;1326;-56
2021/11/13 03:45:14;;;;;;;;;;;13.40;90.90;;;;;;2078110;28;860;-59
2021/11/13 03:46:33;;;;;;;;;;;13.40;91.00;;;;;;2085481;28;1105;-61
2021/11/13 03:47:53;;;;;;;;;;;13.50;91.00;;;;;;2073142;28;1187;-61
2021/11/13 03:49:13;;;;;;;;;;;13.40;91.00;;;;;;2075473;28;1466;-61
2021/11/13 03:50:32;;;;;;;;;;;13.40;91.00;;;;;;2078539;28;1279;-57
2021/11/13 03:51:51;;;;;;;;;;;13.40;90.90;;;;;;2069918;28;1482;-59
2021/11/13 03:53:11;;;;;;;;;;;13.40;90.90;;;;;;2073645;28;1138;-61
2021/11/13 03:54:31;;;;;;;;;;;13.40;91.00;;;;;;2079518;28;1394;-59
2021/11/13 03:55:50;;;;;;;;;;;13.40;91.00;;;;;;2080996;28;1154;-61
2021/11/13 03:57:09;;;;;;;;;;;13.40;91.00;;;;;;2079156;28;1205;-57
2021/11/13 03:58:29;;;;;;;;;;;13.40;91.10;;;;;;2078249;28;1378;-60
2021/11/13 03:59:50;;;;;;;;;;;13.40;91.00;;;;;;2077499;28;1346;-60
2021/11/13 04:01:11;;;;;;;;;;;13.40;91.00;;;;;;2070150;28;1354;-61
2021/11/13 04:02:30;;;;;;;;;;;13.40;91.00;;;;;;2073375;28;1926;-61
2021/11/13 04:03:50;;;;;;;;;;;13.40;91.10;;;;;;2077433;28;1147;-60
2021/11/13 04:05:11;;;;;;;;;;;13.40;91.00;;;;;;2079842;28;1206;-62
2021/11/13 04:06:30;;;;;;;;;;;13.40;91.40;;;;;;2078305;28;1370;-59
2021/11/13 04:07:49;;;;;;;;;;;13.40;91.20;;;;;;2071735;28;1344;-59
2021/11/13 04:09:09;;;;;;;;;;;13.40;91.30;;;;;;2068136;28;1455;-62
2021/11/13 04:10:28;;;;;;;;;;;13.40;91.40;;;;;;2069110;28;1490;-59
2021/11/13 04:11:47;;;;;;;;;;;13.40;91.40;;;;;;2059494;28;1603;-60
2021/11/13 04:13:07;;;;;;;;;;;13.40;91.40;;;;;;2067316;28;1299;-60
2021/11/13 04:14:26;;;;;;;;;;;13.40;91.70;;;;;;2074482;28;1064;-62
2021/11/13 04:15:45;;;;;;;;;;;13.40;91.90;;;;;;2079084;28;969;-62
2021/11/13 04:17:05;;;;;;;;;;;13.40;92.00;;;;;;2078622;28;1022;-58
2021/11/13 04:18:24;;;;;;;;;;;13.40;92.20;;;;;;2077343;28;1127;-60
2021/11/13 04:19:43;;;;;;;;;;;13.40;92.40;;;;;;2079037;28;1112;-62
2021/11/13 04:21:02;;;;;;;;;;;13.40;92.60;;;;;;2078648;28;1312;-62
2021/11/13 04:22:21;;;;;;;;;;;13.40;92.50;;;;;;2078951;28;1969;-62
2021/11/13 04:23:41;;;;;;;;;;;13.40;92.60;;;;;;2070245;28;939;-61
2021/11/13 04:25:00;;;;;;;;;;;13.40;92.70;;;;;;2075512;28;1336;-62
2021/11/13 04:26:19;;;;;;;;;;;13.40;93.10;;;;;;2084802;28;961;-62
2021/11/13 04:27:39;;;;;;;;;;;13.40;93.10;;;;;;2081495;28;867;-62
2021/11/13 04:28:58;;;;;;;;;;;13.40;93.30;;;;;;2068955;28;1272;-62
2021/11/13 04:30:18;;;;;;;;;;;13.40;93.50;;;;;;2076010;28;1101;-60
2021/11/13 04:31:37;;;;;;;;;;;13.40;93.60;;;;;;2087077;28;1158;-63
2021/11/13 04:32:56;;;;;;;;;;;13.40;93.70;;;;;;2082173;28;1444;-57
2021/11/13 04:34:23;;;;;;;;;;;13.40;93.60;;;;;;2076421;28;1170;-60
2021/11/13 04:35:49;;;;;;;;;;;13.40;93.70;;;;;;2077574;28;1006;-61
2021/11/13 04:37:14;;;;;;;;;;;13.40;94.00;;;;;;2075235;28;1230;-61
2021/11/13 04:38:34;;;;;;;;;;;13.40;94.00;;;;;;2078795;28;1258;-59
2021/11/13 04:39:53;;;;;;;;;;;13.40;94.20;;;;;;2068696;28;1363;-58
2021/11/13 04:41:12;;;;;;;;;;;13.40;94.10;;;;;;2068268;28;1424;-60
2021/11/13 04:42:32;;;;;;;;;;;13.40;94.30;;;;;;2075825;28;1926;-61
2021/11/13 04:43:51;;;;;;;;;;;13.40;94.30;;;;;;2077071;28;1302;-61
2021/11/13 04:45:10;;;;;;;;;;;13.40;94.10;;;;;;2078528;28;1529;-61
2021/11/13 04:46:30;;;;;;;;;;;13.40;94.10;;;;;;2077496;28;1275;-60
2021/11/13 04:47:49;;;;;;;;;;;13.40;94.20;;;;;;2070818;28;1423;-57
2021/11/13 04:49:08;;;;;;;;;;;13.40;94.10;;;;;;2074465;28;1450;-61
2021/11/13 04:50:36;;;;;;;;;;;13.40;94.10;;;;;;2069382;28;1247;-60
2021/11/13 04:51:55;;;;;;;;;;;13.40;94.10;;;;;;2067436;28;1335;-58
2021/11/13 04:53:14;;;;;;;;;;;13.40;94.10;;;;;;2075933;28;1258;-60
2021/11/13 04:54:34;;;;;;;;;;;13.40;93.90;;;;;;2077954;28;1284;-60
2021/11/13 04:55:53;;;;;;;;;;;13.40;94.00;;;;;;2068528;28;1225;-59
2021/11/13 04:57:12;;;;;;;;;;;13.40;94.00;;;;;;2063233;28;1341;-61
2021/11/13 04:58:32;;;;;;;;;;;13.40;94.10;;;;;;2065834;28;1305;-60
2021/11/13 04:59:51;;;;;;;;;;;13.40;93.90;;;;;;2062904;28;1206;-60
2021/11/13 05:01:11;;;;;;;;;;;13.40;94.10;;;;;;2065713;28;1314;-60
2021/11/13 05:02:30;;;;;;;;;;;13.30;93.90;;;;;;2072804;28;1991;-61
2021/11/13 05:03:49;;;;;;;;;;;13.40;94.10;;;;;;2078129;28;1361;-61
2021/11/13 05:05:08;;;;;;;;;;;13.40;94.10;;;;;;2060593;28;1231;-57
2021/11/13 05:06:28;;;;;;;;;;;13.40;93.90;;;;;;2071707;28;1210;-60
2021/11/13 05:07:48;;;;;;;;;;;13.40;93.80;;;;;;2078285;28;1567;-61
2021/11/13 05:09:07;;;;;;;;;;;13.30;93.90;;;;;;2076475;28;1859;-59
2021/11/13 05:10:26;;;;;;;;;;;13.40;93.80;;;;;;2064447;28;1835;-58
2021/11/13 05:11:46;;;;;;;;;;;13.30;93.90;;;;;;2072254;28;1628;-59
2021/11/13 05:13:05;;;;;;;;;;;13.40;94.00;;;;;;2076277;28;1419;-61
2021/11/13 05:14:24;;;;;;;;;;;13.30;93.80;;;;;;2075807;28;1407;-61
2021/11/13 05:15:44;;;;;;;;;;;13.40;93.90;;;;;;2066515;28;1326;-61
2021/11/13 05:17:03;;;;;;;;;;;13.30;94.00;;;;;;2074537;28;1173;-59
2021/11/13 05:18:22;;;;;;;;;;;13.30;94.30;;;;;;2075177;28;1330;-61
2021/11/13 05:19:42;;;;;;;;;;;13.30;93.80;;;;;;2077289;28;1281;-60
2021/11/13 05:21:01;;;;;;;;;;;13.30;94.00;;;;;;2073711;28;1263;-58
2021/11/13 05:22:20;;;;;;;;;;;13.40;94.00;;;;;;2067004;28;1491;-59
2021/11/13 05:23:42;;;;;;;;;;;13.30;93.90;;;;;;2067690;28;1203;-59
2021/11/13 05:25:02;;;;;;;;;;;13.30;93.90;;;;;;2073688;28;1338;-59
2021/11/13 05:26:21;;;;;;;;;;;13.30;93.80;;;;;;2085359;28;1217;-58
2021/11/13 05:27:41;;;;;;;;;;;13.30;94.00;;;;;;2079935;28;1186;-59
2021/11/13 05:29:00;;;;;;;;;;;13.30;94.00;;;;;;2078004;28;1698;-60
2021/11/13 05:30:21;;;;;;;;;;;13.30;93.90;;;;;;2070389;28;1381;-61
2021/11/13 05:31:40;;;;;;;;;;;13.30;94.10;;;;;;2061759;28;1337;-60
2021/11/13 05:32:59;;;;;;;;;;;13.30;93.80;;;;;;2063737;28;1447;-60
2021/11/13 05:34:19;;;;;;;;;;;13.30;93.90;;;;;;2073624;28;1521;-60
2021/11/13 05:35:38;;;;;;;;;;;13.30;93.90;;;;;;2075469;28;1367;-60
2021/11/13 05:36:57;;;;;;;;;;;13.30;93.90;;;;;;2071751;28;1418;-61
2021/11/13 05:38:21;;;;;;;;;;;13.30;93.90;;;;;;2070715;28;1781;-61
2021/11/13 05:39:40;;;;;;;;;;;13.30;94.00;;;;;;2071808;28;1186;-59
2021/11/13 05:41:01;;;;;;;;;;;13.30;93.90;;;;;;2061969;28;1703;-56
2021/11/13 05:42:20;;;;;;;;;;;13.30;94.00;;;;;;2070519;28;1367;-61
2021/11/13 05:43:39;;;;;;;;;;;13.30;93.90;;;;;;2071914;28;1250;-60
2021/11/13 05:44:59;;;;;;;;;;;13.30;93.90;;;;;;2070522;28;1421;-59
2021/11/13 05:46:18;;;;;;;;;;;13.30;94.00;;;;;;2067406;28;1620;-57
2021/11/13 05:47:37;;;;;;;;;;;13.30;94.00;;;;;;2069102;28;1261;-61
2021/11/13 05:48:56;;;;;;;;;;;13.30;93.90;;;;;;2072699;28;1442;-61
2021/11/13 05:50:16;;;;;;;;;;;13.30;94.00;;;;;;2069281;28;1386;-59
2021/11/13 05:51:35;;;;;;;;;;;13.30;93.80;;;;;;2073039;28;1153;-60
2021/11/13 05:52:56;;;;;;;;;;;13.30;93.90;;;;;;2076708;28;1545;-61
2021/11/13 05:54:15;;;;;;;;;;;13.30;93.80;;;;;;2068888;28;1229;-61
2021/11/13 05:55:34;;;;;;;;;;;13.30;93.90;;;;;;2074440;28;1253;-60
2021/11/13 05:56:54;;;;;;;;;;;13.30;94.30;;;;;;2085337;28;1310;-60
2021/11/13 05:58:14;;;;;;;;;;;13.30;94.10;;;;;;2078928;28;1466;-59
2021/11/13 05:59:34;;;;;;;;;;;13.30;93.80;;;;;;2066862;28;1310;-61
2021/11/13 06:00:53;;;;;;;;;;;13.30;93.70;;;;;;2067288;28;1374;-62
2021/11/13 06:02:12;;;;;;;;;;;13.30;93.80;;;;;;2072701;28;1396;-61
2021/11/13 06:03:31;;;;;;;;;;;13.30;93.80;;;;;;2065344;28;1232;-62
2021/11/13 06:04:51;;;;;;;;;;;13.30;93.80;;;;;;2068069;28;1403;-60
2021/11/13 06:06:10;;;;;;;;;;;13.30;94.00;;;;;;2066743;28;1054;-60
2021/11/13 06:07:33;;;;;;;;;;;13.30;94.00;;;;;;2073576;28;1329;-62
2021/11/13 06:08:52;;;;;;;;;;;13.30;94.00;;;;;;2074654;28;2100;-62
2021/11/13 06:10:12;;;;;;;;;;;13.30;94.20;;;;;;2066323;28;1194;-61
2021/11/13 06:11:31;;;;;;;;;;;13.30;94.50;;;;;;2074091;28;1287;-59
2021/11/13 06:12:51;;;;;;;;;;;13.30;94.70;;;;;;2068064;28;1495;-62
2021/11/13 06:14:15;;;;;;;;;;;13.30;94.50;;;;;;2073722;28;2148;-58
2021/11/13 06:15:34;;;;;;;;;;;13.30;94.90;;;;;;2079705;28;1461;-62
2021/11/13 06:16:53;;;;;;;;;;;13.30;95.70;;;;;;2068852;28;1446;-62
2021/11/13 06:18:12;;;;;;;;;;;13.30;95.20;;;;;;2074912;28;1158;-62
2021/11/13 06:19:32;;;;;;;;;;;13.30;95.50;;;;;;2078285;28;1329;-61
2021/11/13 06:20:51;;;;;;;;;;;13.30;95.80;;;;;;2070719;28;1499;-63
2021/11/13 06:22:10;;;;;;;;;;;13.30;95.90;;;;;;2074826;28;1357;-61
2021/11/13 06:23:29;;;;;;;;;;;13.30;95.70;;;;;;2069399;28;1308;-58
2021/11/13 06:24:48;;;;;;;;;;;13.30;95.70;;;;;;2076103;28;1405;-62
2021/11/13 06:26:08;;;;;;;;;;;13.30;95.90;;;;;;2076304;28;1526;-62
2021/11/13 06:27:27;;;;;;;;;;;13.30;95.90;;;;;;2075618;28;1303;-62
2021/11/13 06:28:47;;;;;;;;;;;13.30;96.30;;;;;;2076264;28;1253;-62
2021/11/13 06:30:07;;;;;;;;;;;13.30;96.50;;;;;;2067519;28;1244;-62
2021/11/13 06:31:26;;;;;;;;;;;13.30;96.50;;;;;;2081991;28;1280;-59
2021/11/13 06:32:46;;;;;;;;;;;13.30;96.50;;;;;;2070102;28;1514;-62
2021/11/13 06:34:05;;;;;;;;;;;13.30;96.70;;;;;;2073707;28;1374;-60
2021/11/13 06:35:24;;;;;;;;;;;13.30;96.70;;;;;;2077219;28;1168;-61
2021/11/13 06:36:44;;;;;;;;;;;13.30;96.60;;;;;;2078068;28;1415;-59
2021/11/13 06:38:03;;;;;;;;;;;13.30;97.00;;;;;;2077074;28;1300;-60
2021/11/13 06:39:25;;;;;;;;;;;13.30;97.00;;;;;;2063521;28;1621;-59
2021/11/13 06:40:44;;;;;;;;;;;13.30;97.00;;;;;;2072865;28;1312;-59
2021/11/13 06:42:04;;;;;;;;;;;13.30;97.30;;;;;;2068157;28;1243;-61
2021/11/13 06:43:23;;;;;;;;;;;13.30;97.00;;;;;;2073539;28;1972;-61
2021/11/13 06:44:42;;;;;;;;;;;13.30;97.10;;;;;;2069065;28;1212;-61
2021/11/13 06:46:02;;;;;;;;;;;13.30;97.00;;;;;;2062137;28;1207;-59
2021/11/13 06:47:21;;;;;;;;;;;13.30;97.00;;;;;;2069515;28;1235;-59
2021/11/13 06:48:40;;;;;;;;;;;13.30;97.20;;;;;;2068802;28;1330;-59
2021/11/13 06:49:59;;;;;;;;;;;13.30;97.10;;;;;;2074493;28;1297;-61
2021/11/13 06:51:19;;;;;;;;;;;13.30;97.00;;;;;;2078636;28;1319;-58
2021/11/13 06:52:38;;;;;;;;;;;13.20;96.90;;;;;;2076685;28;1433;-58
2021/11/13 06:53:59;;;;;;;;;;;13.30;97.40;;;;;;2078234;28;1381;-61
2021/11/13 06:55:18;;;;;;;;;;;13.30;97.10;;;;;;2068431;28;1121;-61
2021/11/13 06:56:41;;;;;;;;;;;13.30;97.10;;;;;;2072808;28;1256;-61
2021/11/13 06:58:00;;;;;;;;;;;13.20;96.90;;;;;;2067773;28;1290;-61
2021/11/13 06:59:20;;;;;;;;;;;13.20;96.90;;;;;;2065803;28;1127;-61
2021/11/13 07:00:39;;;;;;;;;;;13.30;97.00;;;;;;2079876;28;1272;-57
2021/11/13 07:01:58;;;;;;;;;;;13.20;96.90;;;;;;2080025;28;1411;-61
2021/11/13 07:03:17;;;;;;;;;;;13.20;96.90;;;;;;2068435;28;1926;-56
2021/11/13 07:04:37;;;;;;;;;;;13.30;97.00;;;;;;2073442;28;1508;-61
2021/11/13 07:05:56;;;;;;;;;;;13.20;96.90;;;;;;2077380;28;1249;-60
2021/11/13 07:07:15;;;;;;;;;;;13.20;96.70;;;;;;2068850;28;1328;-60
2021/11/13 07:08:35;;;;;;;;;;;13.20;96.70;;;;;;2082449;28;1322;-57
2021/11/13 07:09:54;;;;;;;;;;;13.20;96.80;;;;;;2081026;28;1219;-55
2021/11/13 07:11:13;;;;;;;;;;;13.20;96.70;;;;;;2078589;28;1266;-59
2021/11/13 07:12:33;;;;;;;;;;;13.30;96.80;;;;;;2077245;28;1368;-58
2021/11/13 07:13:52;;;;;;;;;;;13.20;96.70;;;;;;2086478;28;1015;-59
2021/11/13 07:15:11;;;;;;;;;;;13.20;96.70;;;;;;2079544;28;1026;-59
2021/11/13 07:16:31;;;;;;;;;;;13.20;96.80;;;;;;2093965;28;740;-59
2021/11/13 07:17:50;;;;;;;;;;;13.20;96.80;;;;;;2090821;28;1618;-58
2021/11/13 07:19:09;;;;;;;;;;;13.20;96.80;;;;;;2075516;28;761;-60
2021/11/13 07:20:29;;;;;;;;;;;13.20;96.60;;;;;;2071765;28;1910;-60
2021/11/13 07:21:48;;;;;;;;;;;13.20;96.60;;;;;;2080663;28;775;-61
2021/11/13 07:23:07;;;;;;;;;;;13.20;96.60;;;;;;2072647;28;1965;-60
2021/11/13 07:24:26;;;;;;;;;;;13.20;96.60;;;;;;2069271;28;794;-58
2021/11/13 07:25:46;;;;;;;;;;;13.20;96.60;;;;;;2085115;28;925;-58
2021/11/13 07:27:05;;;;;;;;;;;13.20;96.60;;;;;;2084358;28;1012;-56
2021/11/13 07:28:38;;;;;;;;;;;13.20;96.70;;;;;;2099863;28;776;-59
2021/11/13 07:29:59;;;;;;;;;;;13.20;96.70;;;;;;2092384;28;751;-59
2021/11/13 07:31:19;;;;;;;;;;;13.20;96.80;;;;;;2083729;28;831;-58
2021/11/13 07:32:38;;;;;;;;;;;13.20;96.70;;;;;;2079696;28;1454;-61
2021/11/13 07:33:58;;;;;;;;;;;13.20;96.80;;;;;;2088502;28;788;-61
2021/11/13 07:35:17;;;;;;;;;;;13.20;96.70;;;;;;2074596;28;803;-58
2021/11/13 07:36:36;;;;;;;;;;;13.20;96.60;;;;;;2075687;28;790;-59
2021/11/13 07:37:56;;;;;;;;;;;13.20;96.70;;;;;;2076431;28;737;-57
2021/11/13 07:39:15;;;;;;;;;;;13.20;96.90;;;;;;2066072;28;780;-60
2021/11/13 07:40:34;;;;;;;;;;;13.20;96.90;;;;;;2071568;28;824;-59
2021/11/13 07:41:53;;;;;;;;;;;13.20;96.50;;;;;;2077201;28;784;-60
2021/11/13 07:43:13;;;;;;;;;;;13.20;96.60;;;;;;2076734;28;1906;-59
2021/11/13 07:44:32;;;;;;;;;;;13.20;96.70;;;;;;2076138;28;940;-59
2021/11/13 07:45:51;;;;;;;;;;;13.20;96.60;;;;;;2071248;28;808;-57
2021/11/13 07:47:10;;;;;;;;;;;13.20;96.60;;;;;;2072613;28;805;-61
2021/11/13 07:48:30;;;;;;;;;;;13.30;96.50;;;;;;2076297;28;1510;-58
2021/11/13 07:49:49;;;;;;;;;;;13.30;96.50;;;;;;2076260;28;773;-59
2021/11/13 07:51:08;;;;;;;;;;;13.40;96.30;;;;;;2077085;28;746;-59